sensor_id;sensor_type;location;lat;lon;timestamp;P1;durP1;ratioP1;P2;durP2;ratioP2
11539;SDS011;5826;54.756;9.192;2023-12-14T00:01:35;6.07;;;3.43;;
11539;SDS011;5826;54.756;9.192;2023-12-14T00:04:00;7.07;;;4.70;;
11539;SDS011;5826;54.756;9.192;2023-12-14T00:06:28;4.63;;;3.20;;
11539;SDS011;5826;54.756;9.192;2023-12-14T00:08:54;3.67;;;2.97;;
11539;SDS011;5826;54.756;9.192;2023-12-14T00:11:19;4.10;;;3.27;;
11539;SDS011;5826;54.756;9.192;2023-12-14T00:13:45;5.07;;;3.53;;
11539;SDS011;5826;54.756;9.192;2023-12-14T00:16:10;6.47;;;4.27;;
11539;SDS011;5826;54.756;9.192;2023-12-14T00:18:36;4.73;;;3.53;;
11539;SDS011;5826;54.756;9.192;2023-12-14T00:21:02;4.17;;;3.00;;
11539;SDS011;5826;54.756;9.192;2023-12-14T00:23:28;5.90;;;3.80;;
11539;SDS011;5826;54.756;9.192;2023-12-14T00:25:53;5.60;;;4.20;;
11539;SDS011;5826;54.756;9.192;2023-12-14T00:28:19;4.63;;;3.00;;
11539;SDS011;5826;54.756;9.192;2023-12-14T00:30:44;4.53;;;3.70;;
11539;SDS011;5826;54.756;9.192;2023-12-14T00:33:10;4.70;;;4.00;;
11539;SDS011;5826;54.756;9.192;2023-12-14T00:35:35;4.50;;;3.50;;
11539;SDS011;5826;54.756;9.192;2023-12-14T00:38:01;7.00;;;3.77;;
11539;SDS011;5826;54.756;9.192;2023-12-14T00:40:27;3.83;;;3.33;;
11539;SDS011;5826;54.756;9.192;2023-12-14T00:42:52;4.97;;;4.20;;
11539;SDS011;5826;54.756;9.192;2023-12-14T00:45:17;5.00;;;3.40;;
11539;SDS011;5826;54.756;9.192;2023-12-14T00:47:43;3.77;;;3.20;;
11539;SDS011;5826;54.756;9.192;2023-12-14T00:50:08;4.07;;;3.10;;
11539;SDS011;5826;54.756;9.192;2023-12-14T00:52:34;5.90;;;3.70;;
11539;SDS011;5826;54.756;9.192;2023-12-14T00:55:00;4.63;;;3.73;;
11539;SDS011;5826;54.756;9.192;2023-12-14T00:57:25;4.93;;;3.20;;
11539;SDS011;5826;54.756;9.192;2023-12-14T00:59:51;6.10;;;4.30;;
11539;SDS011;5826;54.756;9.192;2023-12-14T01:02:16;5.10;;;3.73;;
11539;SDS011;5826;54.756;9.192;2023-12-14T01:04:42;5.87;;;4.00;;
11539;SDS011;5826;54.756;9.192;2023-12-14T01:07:07;4.23;;;3.47;;
11539;SDS011;5826;54.756;9.192;2023-12-14T01:09:33;4.93;;;3.40;;
11539;SDS011;5826;54.756;9.192;2023-12-14T01:11:59;5.20;;;3.00;;
11539;SDS011;5826;54.756;9.192;2023-12-14T01:14:24;6.10;;;4.60;;
11539;SDS011;5826;54.756;9.192;2023-12-14T01:16:50;5.60;;;3.87;;
11539;SDS011;5826;54.756;9.192;2023-12-14T01:19:15;4.60;;;3.60;;
11539;SDS011;5826;54.756;9.192;2023-12-14T01:21:41;6.20;;;3.67;;
11539;SDS011;5826;54.756;9.192;2023-12-14T01:24:06;4.70;;;3.77;;
11539;SDS011;5826;54.756;9.192;2023-12-14T01:26:32;6.27;;;3.63;;
11539;SDS011;5826;54.756;9.192;2023-12-14T01:28:58;5.60;;;4.10;;
11539;SDS011;5826;54.756;9.192;2023-12-14T01:31:26;5.97;;;3.63;;
11539;SDS011;5826;54.756;9.192;2023-12-14T01:33:52;4.37;;;3.80;;
11539;SDS011;5826;54.756;9.192;2023-12-14T01:36:23;5.20;;;3.50;;
11539;SDS011;5826;54.756;9.192;2023-12-14T01:38:50;4.43;;;3.43;;
11539;SDS011;5826;54.756;9.192;2023-12-14T01:41:16;5.53;;;4.27;;
11539;SDS011;5826;54.756;9.192;2023-12-14T01:43:42;4.23;;;2.97;;
11539;SDS011;5826;54.756;9.192;2023-12-14T01:46:07;5.53;;;3.50;;
11539;SDS011;5826;54.756;9.192;2023-12-14T01:48:33;5.73;;;3.93;;
11539;SDS011;5826;54.756;9.192;2023-12-14T01:50:58;5.10;;;3.70;;
11539;SDS011;5826;54.756;9.192;2023-12-14T01:53:24;5.67;;;4.30;;
11539;SDS011;5826;54.756;9.192;2023-12-14T01:55:50;5.13;;;3.60;;
11539;SDS011;5826;54.756;9.192;2023-12-14T01:58:15;5.57;;;3.97;;
11539;SDS011;5826;54.756;9.192;2023-12-14T02:00:43;3.90;;;3.20;;
11539;SDS011;5826;54.756;9.192;2023-12-14T02:03:11;6.60;;;3.93;;
11539;SDS011;5826;54.756;9.192;2023-12-14T02:05:36;5.33;;;3.93;;
11539;SDS011;5826;54.756;9.192;2023-12-14T02:08:02;6.67;;;4.37;;
11539;SDS011;5826;54.756;9.192;2023-12-14T02:10:28;5.33;;;4.10;;
11539;SDS011;5826;54.756;9.192;2023-12-14T02:12:53;4.97;;;3.50;;
11539;SDS011;5826;54.756;9.192;2023-12-14T02:15:19;6.50;;;4.13;;
11539;SDS011;5826;54.756;9.192;2023-12-14T02:17:45;6.50;;;4.80;;
11539;SDS011;5826;54.756;9.192;2023-12-14T02:20:10;4.03;;;3.43;;
11539;SDS011;5826;54.756;9.192;2023-12-14T02:22:48;5.10;;;3.30;;
11539;SDS011;5826;54.756;9.192;2023-12-14T02:25:18;6.23;;;4.77;;
11539;SDS011;5826;54.756;9.192;2023-12-14T02:27:44;6.73;;;4.10;;
11539;SDS011;5826;54.756;9.192;2023-12-14T02:30:11;4.73;;;3.57;;
11539;SDS011;5826;54.756;9.192;2023-12-14T02:32:37;6.70;;;4.50;;
11539;SDS011;5826;54.756;9.192;2023-12-14T02:35:04;5.00;;;3.80;;
11539;SDS011;5826;54.756;9.192;2023-12-14T02:37:30;6.30;;;4.13;;
11539;SDS011;5826;54.756;9.192;2023-12-14T02:39:57;5.93;;;4.80;;
11539;SDS011;5826;54.756;9.192;2023-12-14T02:42:22;6.60;;;4.50;;
11539;SDS011;5826;54.756;9.192;2023-12-14T02:44:49;6.03;;;4.43;;
11539;SDS011;5826;54.756;9.192;2023-12-14T02:47:14;5.93;;;3.93;;
11539;SDS011;5826;54.756;9.192;2023-12-14T02:49:40;5.67;;;3.97;;
11539;SDS011;5826;54.756;9.192;2023-12-14T02:52:06;6.40;;;4.50;;
11539;SDS011;5826;54.756;9.192;2023-12-14T02:54:31;4.67;;;3.70;;
11539;SDS011;5826;54.756;9.192;2023-12-14T02:56:56;4.87;;;3.60;;
11539;SDS011;5826;54.756;9.192;2023-12-14T02:59:22;3.47;;;3.00;;
11539;SDS011;5826;54.756;9.192;2023-12-14T03:01:47;3.73;;;3.10;;
11539;SDS011;5826;54.756;9.192;2023-12-14T03:04:13;5.93;;;4.20;;
11539;SDS011;5826;54.756;9.192;2023-12-14T03:06:38;5.17;;;4.43;;
11539;SDS011;5826;54.756;9.192;2023-12-14T03:09:04;5.40;;;3.77;;
11539;SDS011;5826;54.756;9.192;2023-12-14T03:11:30;3.80;;;3.27;;
11539;SDS011;5826;54.756;9.192;2023-12-14T03:13:55;5.07;;;3.13;;
11539;SDS011;5826;54.756;9.192;2023-12-14T03:16:21;4.93;;;3.90;;
11539;SDS011;5826;54.756;9.192;2023-12-14T03:18:46;6.07;;;4.30;;
11539;SDS011;5826;54.756;9.192;2023-12-14T03:21:17;4.03;;;3.20;;
11539;SDS011;5826;54.756;9.192;2023-12-14T03:23:42;6.27;;;4.43;;
11539;SDS011;5826;54.756;9.192;2023-12-14T03:26:08;6.00;;;4.13;;
11539;SDS011;5826;54.756;9.192;2023-12-14T03:28:34;5.47;;;3.90;;
11539;SDS011;5826;54.756;9.192;2023-12-14T03:30:59;4.87;;;4.00;;
11539;SDS011;5826;54.756;9.192;2023-12-14T03:33:25;5.57;;;3.80;;
11539;SDS011;5826;54.756;9.192;2023-12-14T03:35:51;4.37;;;3.60;;
11539;SDS011;5826;54.756;9.192;2023-12-14T03:38:16;7.07;;;4.07;;
11539;SDS011;5826;54.756;9.192;2023-12-14T03:40:42;5.07;;;3.50;;
11539;SDS011;5826;54.756;9.192;2023-12-14T03:43:07;5.43;;;4.13;;
11539;SDS011;5826;54.756;9.192;2023-12-14T03:45:33;5.73;;;4.13;;
11539;SDS011;5826;54.756;9.192;2023-12-14T03:47:58;6.97;;;4.00;;
11539;SDS011;5826;54.756;9.192;2023-12-14T03:50:24;4.97;;;3.93;;
11539;SDS011;5826;54.756;9.192;2023-12-14T03:52:49;6.33;;;4.80;;
11539;SDS011;5826;54.756;9.192;2023-12-14T03:55:15;6.10;;;3.90;;
11539;SDS011;5826;54.756;9.192;2023-12-14T03:57:41;6.80;;;4.47;;
11539;SDS011;5826;54.756;9.192;2023-12-14T04:00:09;6.43;;;4.20;;
11539;SDS011;5826;54.756;9.192;2023-12-14T04:02:38;4.80;;;3.87;;
11539;SDS011;5826;54.756;9.192;2023-12-14T04:05:05;3.87;;;2.93;;
11539;SDS011;5826;54.756;9.192;2023-12-14T04:07:31;4.60;;;3.40;;
11539;SDS011;5826;54.756;9.192;2023-12-14T04:09:57;4.33;;;3.27;;
11539;SDS011;5826;54.756;9.192;2023-12-14T04:12:22;3.97;;;3.43;;
11539;SDS011;5826;54.756;9.192;2023-12-14T04:14:48;8.03;;;4.47;;
11539;SDS011;5826;54.756;9.192;2023-12-14T04:17:14;5.80;;;4.30;;
11539;SDS011;5826;54.756;9.192;2023-12-14T04:19:40;7.40;;;4.30;;
11539;SDS011;5826;54.756;9.192;2023-12-14T04:22:06;7.73;;;4.90;;
11539;SDS011;5826;54.756;9.192;2023-12-14T04:24:31;5.60;;;3.90;;
11539;SDS011;5826;54.756;9.192;2023-12-14T04:26:58;5.07;;;3.87;;
11539;SDS011;5826;54.756;9.192;2023-12-14T04:29:23;5.77;;;4.17;;
11539;SDS011;5826;54.756;9.192;2023-12-14T04:31:49;6.73;;;4.47;;
11539;SDS011;5826;54.756;9.192;2023-12-14T04:34:14;5.20;;;3.83;;
11539;SDS011;5826;54.756;9.192;2023-12-14T04:36:44;5.20;;;4.13;;
11539;SDS011;5826;54.756;9.192;2023-12-14T04:39:10;5.27;;;4.03;;
11539;SDS011;5826;54.756;9.192;2023-12-14T04:41:36;5.17;;;4.37;;
11539;SDS011;5826;54.756;9.192;2023-12-14T04:44:02;6.27;;;4.30;;
11539;SDS011;5826;54.756;9.192;2023-12-14T04:46:27;7.17;;;4.43;;
11539;SDS011;5826;54.756;9.192;2023-12-14T04:48:53;5.73;;;3.97;;
11539;SDS011;5826;54.756;9.192;2023-12-14T04:51:18;5.93;;;4.27;;
11539;SDS011;5826;54.756;9.192;2023-12-14T04:53:44;5.57;;;3.83;;
11539;SDS011;5826;54.756;9.192;2023-12-14T04:56:12;6.30;;;4.73;;
11539;SDS011;5826;54.756;9.192;2023-12-14T04:58:41;6.90;;;5.07;;
11539;SDS011;5826;54.756;9.192;2023-12-14T05:01:07;6.70;;;4.50;;
11539;SDS011;5826;54.756;9.192;2023-12-14T05:03:33;7.33;;;4.27;;
11539;SDS011;5826;54.756;9.192;2023-12-14T05:05:59;5.77;;;4.10;;
11539;SDS011;5826;54.756;9.192;2023-12-14T05:08:25;5.97;;;4.60;;
11539;SDS011;5826;54.756;9.192;2023-12-14T05:10:51;6.50;;;4.43;;
11539;SDS011;5826;54.756;9.192;2023-12-14T05:13:16;5.27;;;3.97;;
11539;SDS011;5826;54.756;9.192;2023-12-14T05:15:42;7.50;;;4.47;;
11539;SDS011;5826;54.756;9.192;2023-12-14T05:18:07;6.33;;;4.43;;
11539;SDS011;5826;54.756;9.192;2023-12-14T05:20:33;5.20;;;4.27;;
11539;SDS011;5826;54.756;9.192;2023-12-14T05:22:59;6.10;;;4.93;;
11539;SDS011;5826;54.756;9.192;2023-12-14T05:25:25;6.43;;;4.70;;
11539;SDS011;5826;54.756;9.192;2023-12-14T05:27:50;6.70;;;4.33;;
11539;SDS011;5826;54.756;9.192;2023-12-14T05:30:16;5.73;;;4.20;;
11539;SDS011;5826;54.756;9.192;2023-12-14T05:32:42;7.07;;;4.33;;
11539;SDS011;5826;54.756;9.192;2023-12-14T05:35:08;3.77;;;3.37;;
11539;SDS011;5826;54.756;9.192;2023-12-14T05:37:34;5.70;;;4.50;;
11539;SDS011;5826;54.756;9.192;2023-12-14T05:40:00;5.80;;;4.33;;
11539;SDS011;5826;54.756;9.192;2023-12-14T05:42:26;5.23;;;3.93;;
11539;SDS011;5826;54.756;9.192;2023-12-14T05:44:51;5.90;;;3.90;;
11539;SDS011;5826;54.756;9.192;2023-12-14T05:47:17;5.13;;;3.70;;
11539;SDS011;5826;54.756;9.192;2023-12-14T05:49:43;5.23;;;3.57;;
11539;SDS011;5826;54.756;9.192;2023-12-14T05:52:09;6.50;;;4.07;;
11539;SDS011;5826;54.756;9.192;2023-12-14T05:54:38;6.27;;;4.17;;
11539;SDS011;5826;54.756;9.192;2023-12-14T05:57:06;4.40;;;3.70;;
11539;SDS011;5826;54.756;9.192;2023-12-14T05:59:32;5.23;;;3.93;;
11539;SDS011;5826;54.756;9.192;2023-12-14T06:01:58;6.27;;;4.33;;
11539;SDS011;5826;54.756;9.192;2023-12-14T06:04:25;7.37;;;4.03;;
11539;SDS011;5826;54.756;9.192;2023-12-14T06:06:51;5.70;;;4.20;;
11539;SDS011;5826;54.756;9.192;2023-12-14T06:09:16;5.50;;;3.90;;
11539;SDS011;5826;54.756;9.192;2023-12-14T06:11:46;4.83;;;4.07;;
11539;SDS011;5826;54.756;9.192;2023-12-14T06:14:12;5.30;;;3.97;;
11539;SDS011;5826;54.756;9.192;2023-12-14T06:16:37;6.40;;;4.50;;
11539;SDS011;5826;54.756;9.192;2023-12-14T06:19:03;5.97;;;4.33;;
11539;SDS011;5826;54.756;9.192;2023-12-14T06:21:28;6.20;;;4.37;;
11539;SDS011;5826;54.756;9.192;2023-12-14T06:23:55;5.27;;;4.03;;
11539;SDS011;5826;54.756;9.192;2023-12-14T06:26:22;5.10;;;3.83;;
11539;SDS011;5826;54.756;9.192;2023-12-14T06:28:47;4.53;;;3.83;;
11539;SDS011;5826;54.756;9.192;2023-12-14T06:31:13;5.77;;;4.00;;
11539;SDS011;5826;54.756;9.192;2023-12-14T06:33:39;5.80;;;4.00;;
11539;SDS011;5826;54.756;9.192;2023-12-14T06:36:06;5.43;;;4.00;;
11539;SDS011;5826;54.756;9.192;2023-12-14T06:38:33;7.17;;;4.30;;
11539;SDS011;5826;54.756;9.192;2023-12-14T06:40:58;5.33;;;4.27;;
11539;SDS011;5826;54.756;9.192;2023-12-14T06:43:24;5.77;;;4.17;;
11539;SDS011;5826;54.756;9.192;2023-12-14T06:45:50;5.23;;;4.03;;
11539;SDS011;5826;54.756;9.192;2023-12-14T06:48:15;6.00;;;4.30;;
11539;SDS011;5826;54.756;9.192;2023-12-14T06:50:41;6.63;;;4.20;;
11539;SDS011;5826;54.756;9.192;2023-12-14T06:53:06;5.37;;;4.37;;
11539;SDS011;5826;54.756;9.192;2023-12-14T06:55:32;6.40;;;4.47;;
11539;SDS011;5826;54.756;9.192;2023-12-14T06:57:57;6.47;;;4.80;;
11539;SDS011;5826;54.756;9.192;2023-12-14T07:00:23;5.20;;;4.13;;
11539;SDS011;5826;54.756;9.192;2023-12-14T07:02:48;5.97;;;4.37;;
11539;SDS011;5826;54.756;9.192;2023-12-14T07:05:14;5.27;;;4.10;;
11539;SDS011;5826;54.756;9.192;2023-12-14T07:07:40;5.17;;;3.63;;
11539;SDS011;5826;54.756;9.192;2023-12-14T07:10:06;6.83;;;4.80;;
11539;SDS011;5826;54.756;9.192;2023-12-14T07:12:31;5.57;;;4.53;;
11539;SDS011;5826;54.756;9.192;2023-12-14T07:14:57;6.00;;;4.60;;
11539;SDS011;5826;54.756;9.192;2023-12-14T07:17:22;6.47;;;4.83;;
11539;SDS011;5826;54.756;9.192;2023-12-14T07:19:48;6.27;;;4.40;;
11539;SDS011;5826;54.756;9.192;2023-12-14T07:22:14;6.37;;;4.77;;
11539;SDS011;5826;54.756;9.192;2023-12-14T07:24:40;6.77;;;4.50;;
11539;SDS011;5826;54.756;9.192;2023-12-14T07:27:06;5.73;;;4.00;;
11539;SDS011;5826;54.756;9.192;2023-12-14T07:29:32;7.10;;;4.47;;
11539;SDS011;5826;54.756;9.192;2023-12-14T07:31:57;5.13;;;3.80;;
11539;SDS011;5826;54.756;9.192;2023-12-14T07:34:23;5.37;;;4.03;;
11539;SDS011;5826;54.756;9.192;2023-12-14T07:36:49;6.97;;;4.40;;
11539;SDS011;5826;54.756;9.192;2023-12-14T07:39:15;6.23;;;4.67;;
11539;SDS011;5826;54.756;9.192;2023-12-14T07:41:40;5.80;;;4.47;;
11539;SDS011;5826;54.756;9.192;2023-12-14T07:44:06;5.10;;;3.90;;
11539;SDS011;5826;54.756;9.192;2023-12-14T07:46:31;6.37;;;4.30;;
11539;SDS011;5826;54.756;9.192;2023-12-14T07:48:57;6.70;;;4.73;;
11539;SDS011;5826;54.756;9.192;2023-12-14T07:51:22;6.57;;;4.73;;
11539;SDS011;5826;54.756;9.192;2023-12-14T07:53:48;6.17;;;4.40;;
11539;SDS011;5826;54.756;9.192;2023-12-14T07:56:13;5.83;;;4.17;;
11539;SDS011;5826;54.756;9.192;2023-12-14T07:58:39;6.07;;;4.43;;
11539;SDS011;5826;54.756;9.192;2023-12-14T08:01:05;6.87;;;4.73;;
11539;SDS011;5826;54.756;9.192;2023-12-14T08:03:30;5.20;;;4.40;;
11539;SDS011;5826;54.756;9.192;2023-12-14T08:05:56;6.40;;;4.50;;
11539;SDS011;5826;54.756;9.192;2023-12-14T08:08:21;5.30;;;4.10;;
11539;SDS011;5826;54.756;9.192;2023-12-14T08:10:47;5.77;;;4.50;;
11539;SDS011;5826;54.756;9.192;2023-12-14T08:13:12;4.60;;;3.67;;
11539;SDS011;5826;54.756;9.192;2023-12-14T08:15:38;6.10;;;4.30;;
11539;SDS011;5826;54.756;9.192;2023-12-14T08:18:03;5.80;;;4.30;;
11539;SDS011;5826;54.756;9.192;2023-12-14T08:20:29;6.13;;;4.50;;
11539;SDS011;5826;54.756;9.192;2023-12-14T08:22:54;6.63;;;4.07;;
11539;SDS011;5826;54.756;9.192;2023-12-14T08:25:20;5.93;;;4.13;;
11539;SDS011;5826;54.756;9.192;2023-12-14T08:27:46;4.80;;;3.90;;
11539;SDS011;5826;54.756;9.192;2023-12-14T08:30:12;6.80;;;4.57;;
11539;SDS011;5826;54.756;9.192;2023-12-14T08:32:38;5.80;;;4.30;;
11539;SDS011;5826;54.756;9.192;2023-12-14T08:35:04;6.13;;;4.17;;
11539;SDS011;5826;54.756;9.192;2023-12-14T08:37:29;7.40;;;4.60;;
11539;SDS011;5826;54.756;9.192;2023-12-14T08:39:55;6.83;;;4.90;;
11539;SDS011;5826;54.756;9.192;2023-12-14T08:42:20;6.93;;;5.20;;
11539;SDS011;5826;54.756;9.192;2023-12-14T08:44:46;8.07;;;5.03;;
11539;SDS011;5826;54.756;9.192;2023-12-14T08:47:12;7.53;;;5.37;;
11539;SDS011;5826;54.756;9.192;2023-12-14T08:49:37;5.97;;;4.90;;
11539;SDS011;5826;54.756;9.192;2023-12-14T08:52:03;8.13;;;5.03;;
11539;SDS011;5826;54.756;9.192;2023-12-14T08:54:31;6.10;;;4.87;;
11539;SDS011;5826;54.756;9.192;2023-12-14T08:56:57;5.80;;;4.70;;
11539;SDS011;5826;54.756;9.192;2023-12-14T08:59:23;7.77;;;5.47;;
11539;SDS011;5826;54.756;9.192;2023-12-14T09:01:49;7.20;;;5.30;;
11539;SDS011;5826;54.756;9.192;2023-12-14T09:04:14;5.80;;;4.63;;
11539;SDS011;5826;54.756;9.192;2023-12-14T09:06:40;6.63;;;5.20;;
11539;SDS011;5826;54.756;9.192;2023-12-14T09:09:10;7.37;;;5.40;;
11539;SDS011;5826;54.756;9.192;2023-12-14T09:11:36;6.90;;;4.97;;
11539;SDS011;5826;54.756;9.192;2023-12-14T09:14:02;6.90;;;4.87;;
11539;SDS011;5826;54.756;9.192;2023-12-14T09:16:27;6.10;;;4.63;;
11539;SDS011;5826;54.756;9.192;2023-12-14T09:18:53;7.10;;;5.33;;
11539;SDS011;5826;54.756;9.192;2023-12-14T09:21:18;8.27;;;4.93;;
11539;SDS011;5826;54.756;9.192;2023-12-14T09:23:44;7.07;;;5.20;;
11539;SDS011;5826;54.756;9.192;2023-12-14T09:26:09;6.40;;;4.50;;
11539;SDS011;5826;54.756;9.192;2023-12-14T09:28:35;8.23;;;5.60;;
11539;SDS011;5826;54.756;9.192;2023-12-14T09:31:01;6.17;;;4.60;;
11539;SDS011;5826;54.756;9.192;2023-12-14T09:33:27;6.53;;;5.10;;
11539;SDS011;5826;54.756;9.192;2023-12-14T09:35:53;7.17;;;5.13;;
11539;SDS011;5826;54.756;9.192;2023-12-14T09:38:18;6.10;;;4.93;;
11539;SDS011;5826;54.756;9.192;2023-12-14T09:40:44;6.97;;;4.70;;
11539;SDS011;5826;54.756;9.192;2023-12-14T09:43:10;7.53;;;5.00;;
11539;SDS011;5826;54.756;9.192;2023-12-14T09:45:36;6.73;;;5.37;;
11539;SDS011;5826;54.756;9.192;2023-12-14T09:48:06;5.37;;;4.23;;
11539;SDS011;5826;54.756;9.192;2023-12-14T09:50:34;6.57;;;4.50;;
11539;SDS011;5826;54.756;9.192;2023-12-14T09:53:02;6.43;;;4.37;;
11539;SDS011;5826;54.756;9.192;2023-12-14T09:55:27;5.30;;;3.97;;
11539;SDS011;5826;54.756;9.192;2023-12-14T09:57:53;5.40;;;4.27;;
11539;SDS011;5826;54.756;9.192;2023-12-14T10:00:34;6.00;;;4.90;;
11539;SDS011;5826;54.756;9.192;2023-12-14T10:05:42;9.33;;;5.53;;
11539;SDS011;5826;54.756;9.192;2023-12-14T10:08:08;11.40;;;6.47;;
11539;SDS011;5826;54.756;9.192;2023-12-14T10:10:33;30.97;;;11.43;;
11539;SDS011;5826;54.756;9.192;2023-12-14T10:12:59;36.43;;;13.67;;
11539;SDS011;5826;54.756;9.192;2023-12-14T10:15:25;28.00;;;10.97;;
11539;SDS011;5826;54.756;9.192;2023-12-14T10:17:52;35.67;;;13.47;;
11539;SDS011;5826;54.756;9.192;2023-12-14T10:20:19;18.23;;;9.23;;
11539;SDS011;5826;54.756;9.192;2023-12-14T10:22:48;15.23;;;7.00;;
11539;SDS011;5826;54.756;9.192;2023-12-14T10:25:15;13.53;;;6.70;;
11539;SDS011;5826;54.756;9.192;2023-12-14T10:27:42;16.63;;;8.27;;
11539;SDS011;5826;54.756;9.192;2023-12-14T10:30:19;25.43;;;10.03;;
11539;SDS011;5826;54.756;9.192;2023-12-14T10:32:48;32.77;;;12.17;;
11539;SDS011;5826;54.756;9.192;2023-12-14T10:35:15;42.40;;;15.77;;
11539;SDS011;5826;54.756;9.192;2023-12-14T10:37:41;25.40;;;10.17;;
11539;SDS011;5826;54.756;9.192;2023-12-14T10:40:08;19.80;;;8.63;;
11539;SDS011;5826;54.756;9.192;2023-12-14T10:42:37;13.87;;;7.23;;
11539;SDS011;5826;54.756;9.192;2023-12-14T10:45:07;9.43;;;5.80;;
11539;SDS011;5826;54.756;9.192;2023-12-14T10:47:35;7.40;;;5.77;;
11539;SDS011;5826;54.756;9.192;2023-12-14T10:50:04;9.00;;;5.40;;
11539;SDS011;5826;54.756;9.192;2023-12-14T10:52:30;7.20;;;4.23;;
11539;SDS011;5826;54.756;9.192;2023-12-14T10:55:02;7.90;;;4.60;;
11539;SDS011;5826;54.756;9.192;2023-12-14T10:57:35;6.83;;;4.70;;
11539;SDS011;5826;54.756;9.192;2023-12-14T11:00:04;6.07;;;4.67;;
11539;SDS011;5826;54.756;9.192;2023-12-14T11:02:38;5.00;;;3.60;;
11539;SDS011;5826;54.756;9.192;2023-12-14T11:05:05;5.53;;;3.77;;
11539;SDS011;5826;54.756;9.192;2023-12-14T11:07:47;5.77;;;4.30;;
11539;SDS011;5826;54.756;9.192;2023-12-14T11:10:13;6.50;;;4.00;;
11539;SDS011;5826;54.756;9.192;2023-12-14T11:12:49;5.87;;;3.90;;
11539;SDS011;5826;54.756;9.192;2023-12-14T11:15:19;4.67;;;3.70;;
11539;SDS011;5826;54.756;9.192;2023-12-14T11:18:19;6.60;;;4.37;;
11539;SDS011;5826;54.756;9.192;2023-12-14T11:21:08;4.77;;;3.33;;
11539;SDS011;5826;54.756;9.192;2023-12-14T11:23:28;5.20;;;3.23;;
11539;SDS011;5826;54.756;9.192;2023-12-14T11:25:57;4.83;;;3.53;;
11539;SDS011;5826;54.756;9.192;2023-12-14T11:28:24;6.50;;;3.70;;
11539;SDS011;5826;54.756;9.192;2023-12-14T11:30:53;4.10;;;3.13;;
11539;SDS011;5826;54.756;9.192;2023-12-14T11:33:20;5.90;;;4.07;;
11539;SDS011;5826;54.756;9.192;2023-12-14T11:35:46;6.40;;;3.37;;
11539;SDS011;5826;54.756;9.192;2023-12-14T11:38:11;4.80;;;4.10;;
11539;SDS011;5826;54.756;9.192;2023-12-14T11:40:40;5.03;;;3.57;;
11539;SDS011;5826;54.756;9.192;2023-12-14T11:43:07;4.00;;;3.30;;
11539;SDS011;5826;54.756;9.192;2023-12-14T11:45:42;4.83;;;3.70;;
11539;SDS011;5826;54.756;9.192;2023-12-14T11:48:09;4.33;;;3.50;;
11539;SDS011;5826;54.756;9.192;2023-12-14T11:50:37;3.83;;;3.23;;
11539;SDS011;5826;54.756;9.192;2023-12-14T11:53:04;3.83;;;3.10;;
11539;SDS011;5826;54.756;9.192;2023-12-14T11:55:30;4.13;;;3.50;;
11539;SDS011;5826;54.756;9.192;2023-12-14T11:57:56;4.93;;;4.23;;
11539;SDS011;5826;54.756;9.192;2023-12-14T12:00:23;4.57;;;3.33;;
11539;SDS011;5826;54.756;9.192;2023-12-14T12:05:40;4.40;;;3.20;;
11539;SDS011;5826;54.756;9.192;2023-12-14T12:08:10;4.50;;;3.43;;
11539;SDS011;5826;54.756;9.192;2023-12-14T12:10:37;3.80;;;3.37;;
11539;SDS011;5826;54.756;9.192;2023-12-14T12:13:04;5.60;;;3.77;;
11539;SDS011;5826;54.756;9.192;2023-12-14T12:15:32;5.33;;;3.73;;
11539;SDS011;5826;54.756;9.192;2023-12-14T12:18:00;5.53;;;4.27;;
11539;SDS011;5826;54.756;9.192;2023-12-14T12:20:30;5.60;;;3.80;;
11539;SDS011;5826;54.756;9.192;2023-12-14T12:22:57;4.77;;;3.40;;
11539;SDS011;5826;54.756;9.192;2023-12-14T12:25:22;4.03;;;3.33;;
11539;SDS011;5826;54.756;9.192;2023-12-14T12:27:48;5.27;;;3.90;;
11539;SDS011;5826;54.756;9.192;2023-12-14T12:30:14;4.33;;;3.23;;
11539;SDS011;5826;54.756;9.192;2023-12-14T12:32:40;5.87;;;3.70;;
11539;SDS011;5826;54.756;9.192;2023-12-14T12:35:06;6.63;;;4.03;;
11539;SDS011;5826;54.756;9.192;2023-12-14T12:37:32;5.27;;;4.33;;
11539;SDS011;5826;54.756;9.192;2023-12-14T12:39:58;5.30;;;3.90;;
11539;SDS011;5826;54.756;9.192;2023-12-14T12:42:23;4.47;;;3.23;;
11539;SDS011;5826;54.756;9.192;2023-12-14T12:44:50;5.23;;;4.13;;
11539;SDS011;5826;54.756;9.192;2023-12-14T12:47:16;5.27;;;4.30;;
11539;SDS011;5826;54.756;9.192;2023-12-14T12:49:41;4.97;;;3.70;;
11539;SDS011;5826;54.756;9.192;2023-12-14T12:52:07;7.03;;;4.70;;
11539;SDS011;5826;54.756;9.192;2023-12-14T12:54:32;7.23;;;5.17;;
11539;SDS011;5826;54.756;9.192;2023-12-14T12:56:58;5.33;;;3.70;;
11539;SDS011;5826;54.756;9.192;2023-12-14T12:59:23;4.93;;;3.53;;
11539;SDS011;5826;54.756;9.192;2023-12-14T13:01:49;5.50;;;4.10;;
11539;SDS011;5826;54.756;9.192;2023-12-14T13:04:18;4.97;;;3.43;;
11539;SDS011;5826;54.756;9.192;2023-12-14T13:06:44;5.67;;;4.20;;
11539;SDS011;5826;54.756;9.192;2023-12-14T13:09:11;4.70;;;3.90;;
11539;SDS011;5826;54.756;9.192;2023-12-14T13:11:37;4.67;;;3.57;;
11539;SDS011;5826;54.756;9.192;2023-12-14T13:14:02;5.13;;;3.70;;
11539;SDS011;5826;54.756;9.192;2023-12-14T13:16:32;4.57;;;3.90;;
11539;SDS011;5826;54.756;9.192;2023-12-14T13:18:59;5.47;;;3.70;;
11539;SDS011;5826;54.756;9.192;2023-12-14T13:21:24;4.93;;;3.93;;
11539;SDS011;5826;54.756;9.192;2023-12-14T13:23:50;5.90;;;4.30;;
11539;SDS011;5826;54.756;9.192;2023-12-14T13:26:16;6.13;;;4.77;;
11539;SDS011;5826;54.756;9.192;2023-12-14T13:28:41;7.27;;;4.93;;
11539;SDS011;5826;54.756;9.192;2023-12-14T13:31:07;5.67;;;4.57;;
11539;SDS011;5826;54.756;9.192;2023-12-14T13:33:33;6.67;;;5.03;;
11539;SDS011;5826;54.756;9.192;2023-12-14T13:35:58;8.13;;;5.27;;
11539;SDS011;5826;54.756;9.192;2023-12-14T13:38:24;5.77;;;3.97;;
11539;SDS011;5826;54.756;9.192;2023-12-14T13:40:50;6.90;;;5.17;;
11539;SDS011;5826;54.756;9.192;2023-12-14T13:43:15;8.03;;;4.87;;
11539;SDS011;5826;54.756;9.192;2023-12-14T13:45:41;5.80;;;4.93;;
11539;SDS011;5826;54.756;9.192;2023-12-14T13:48:07;7.13;;;5.03;;
11539;SDS011;5826;54.756;9.192;2023-12-14T13:50:33;6.77;;;4.80;;
11539;SDS011;5826;54.756;9.192;2023-12-14T13:52:59;5.83;;;4.30;;
11539;SDS011;5826;54.756;9.192;2023-12-14T13:55:25;7.00;;;5.20;;
11539;SDS011;5826;54.756;9.192;2023-12-14T13:57:50;6.10;;;4.63;;
11539;SDS011;5826;54.756;9.192;2023-12-14T14:00:16;5.40;;;4.00;;
11539;SDS011;5826;54.756;9.192;2023-12-14T14:02:44;5.03;;;4.23;;
11539;SDS011;5826;54.756;9.192;2023-12-14T14:05:09;6.30;;;4.70;;
11539;SDS011;5826;54.756;9.192;2023-12-14T14:07:35;5.37;;;4.23;;
11539;SDS011;5826;54.756;9.192;2023-12-14T14:10:01;6.40;;;4.67;;
11539;SDS011;5826;54.756;9.192;2023-12-14T14:12:26;7.50;;;5.00;;
11539;SDS011;5826;54.756;9.192;2023-12-14T14:14:52;6.17;;;4.87;;
11539;SDS011;5826;54.756;9.192;2023-12-14T14:17:17;10.73;;;6.17;;
11539;SDS011;5826;54.756;9.192;2023-12-14T14:19:43;12.50;;;7.07;;
11539;SDS011;5826;54.756;9.192;2023-12-14T14:22:08;7.53;;;5.43;;
11539;SDS011;5826;54.756;9.192;2023-12-14T14:24:34;7.80;;;4.97;;
11539;SDS011;5826;54.756;9.192;2023-12-14T14:26:59;6.87;;;5.10;;
11539;SDS011;5826;54.756;9.192;2023-12-14T14:29:25;6.90;;;5.10;;
11539;SDS011;5826;54.756;9.192;2023-12-14T14:31:50;7.23;;;5.30;;
11539;SDS011;5826;54.756;9.192;2023-12-14T14:34:16;6.27;;;5.00;;
11539;SDS011;5826;54.756;9.192;2023-12-14T14:36:41;8.07;;;5.27;;
11539;SDS011;5826;54.756;9.192;2023-12-14T14:39:07;9.93;;;6.47;;
11539;SDS011;5826;54.756;9.192;2023-12-14T14:41:33;7.80;;;5.73;;
11539;SDS011;5826;54.756;9.192;2023-12-14T14:43:58;8.43;;;6.00;;
11539;SDS011;5826;54.756;9.192;2023-12-14T14:46:24;6.93;;;5.63;;
11539;SDS011;5826;54.756;9.192;2023-12-14T14:48:49;7.63;;;5.30;;
11539;SDS011;5826;54.756;9.192;2023-12-14T14:51:15;8.43;;;6.17;;
11539;SDS011;5826;54.756;9.192;2023-12-14T14:53:40;7.37;;;5.30;;
11539;SDS011;5826;54.756;9.192;2023-12-14T14:56:09;6.67;;;5.20;;
11539;SDS011;5826;54.756;9.192;2023-12-14T14:58:35;7.03;;;5.40;;
11539;SDS011;5826;54.756;9.192;2023-12-14T15:01:01;6.33;;;5.27;;